sensor_id;sensor_type;location;lat;lon;timestamp;pressure;altitude;pressure_sealevel;temperature;humidity
50226;BME280;36113;50.742;6.432;2022-07-29T00:00:18;98652.69;;;17.10;83.65
50226;BME280;36113;50.742;6.432;2022-07-29T00:02:43;98643.53;;;17.04;83.81
50226;BME280;36113;50.742;6.432;2022-07-29T00:05:09;98626.03;;;16.93;83.16
50226;BME280;36113;50.742;6.432;2022-07-29T00:07:35;98611.63;;;16.87;83.45
50226;BME280;36113;50.742;6.432;2022-07-29T00:10:00;98638.31;;;17.04;83.37
50226;BME280;36113;50.742;6.432;2022-07-29T00:12:25;98637.94;;;16.97;83.52
50226;BME280;36113;50.742;6.432;2022-07-29T00:14:52;98608.03;;;16.77;84.05
50226;BME280;36113;50.742;6.432;2022-07-29T00:17:17;98638.28;;;16.93;83.92
50226;BME280;36113;50.742;6.432;2022-07-29T00:19:43;98635.91;;;16.90;84.42
50226;BME280;36113;50.742;6.432;2022-07-29T00:22:08;98613.97;;;16.79;84.05
50226;BME280;36113;50.742;6.432;2022-07-29T00:24:33;98607.56;;;16.72;84.65
50226;BME280;36113;50.742;6.432;2022-07-29T00:26:59;98624.84;;;16.86;84.46
50226;BME280;36113;50.742;6.432;2022-07-29T00:29:24;98603.41;;;16.69;85.07
50226;BME280;36113;50.742;6.432;2022-07-29T00:31:50;98623.75;;;16.77;85.06
50226;BME280;36113;50.742;6.432;2022-07-29T00:34:16;98610.88;;;16.74;85.27
50226;BME280;36113;50.742;6.432;2022-07-29T00:37:00;98577.94;;;16.49;85.45
50226;BME280;36113;50.742;6.432;2022-07-29T00:39:25;98607.91;;;16.67;85.62
50226;BME280;36113;50.742;6.432;2022-07-29T00:41:50;98597.22;;;16.59;86.35
50226;BME280;36113;50.742;6.432;2022-07-29T00:44:16;98607.69;;;16.59;86.34
50226;BME280;36113;50.742;6.432;2022-07-29T00:46:41;98578.50;;;16.41;86.51
50226;BME280;36113;50.742;6.432;2022-07-29T00:49:07;98602.78;;;16.55;86.61
50226;BME280;36113;50.742;6.432;2022-07-29T00:51:34;98602.66;;;16.45;86.84
50226;BME280;36113;50.742;6.432;2022-07-29T00:54:00;98597.41;;;16.34;87.56
50226;BME280;36113;50.742;6.432;2022-07-29T00:56:26;98586.34;;;16.30;87.90
50226;BME280;36113;50.742;6.432;2022-07-29T00:58:52;98572.41;;;16.18;87.36
50226;BME280;36113;50.742;6.432;2022-07-29T01:01:18;98578.03;;;16.25;87.37
50226;BME280;36113;50.742;6.432;2022-07-29T01:03:43;98549.22;;;16.13;87.08
50226;BME280;36113;50.742;6.432;2022-07-29T01:06:09;98579.31;;;16.30;86.89
50226;BME280;36113;50.742;6.432;2022-07-29T01:08:35;98564.19;;;16.23;86.99
50226;BME280;36113;50.742;6.432;2022-07-29T01:11:01;98574.09;;;16.30;86.86
50226;BME280;36113;50.742;6.432;2022-07-29T01:13:27;98579.31;;;16.30;86.85
50226;BME280;36113;50.742;6.432;2022-07-29T01:15:59;98574.09;;;16.30;86.84
50226;BME280;36113;50.742;6.432;2022-07-29T01:18:32;98563.63;;;16.30;86.55
50226;BME280;36113;50.742;6.432;2022-07-29T01:21:59;98571.03;;;16.37;86.28
50226;BME280;36113;50.742;6.432;2022-07-29T01:31:35;98566.28;;;16.42;85.97
50226;BME280;36113;50.742;6.432;2022-07-29T01:34:07;98567.81;;;16.44;85.94
50226;BME280;36113;50.742;6.432;2022-07-29T01:36:36;98559.84;;;16.46;86.10
50226;BME280;36113;50.742;6.432;2022-07-29T01:39:07;98538.50;;;16.28;86.27
50226;BME280;36113;50.742;6.432;2022-07-29T01:41:36;98563.97;;;16.48;85.75
50226;BME280;36113;50.742;6.432;2022-07-29T01:44:28;98573.41;;;16.62;85.17
50226;BME280;36113;50.742;6.432;2022-07-29T01:46:59;98566.97;;;16.55;85.03
50226;BME280;36113;50.742;6.432;2022-07-29T01:49:28;98578.88;;;16.59;85.47
50226;BME280;36113;50.742;6.432;2022-07-29T01:52:00;98581.13;;;16.53;85.79
50226;BME280;36113;50.742;6.432;2022-07-29T01:54:38;98553.06;;;16.32;85.78
50226;BME280;36113;50.742;6.432;2022-07-29T01:57:09;98579.34;;;16.42;85.76
50226;BME280;36113;50.742;6.432;2022-07-29T01:59:37;98581.72;;;16.34;86.41
50226;BME280;36113;50.742;6.432;2022-07-29T02:02:02;98523.53;;;16.07;85.93
50226;BME280;36113;50.742;6.432;2022-07-29T02:04:29;98555.41;;;16.24;86.36
50226;BME280;36113;50.742;6.432;2022-07-29T02:07:04;98550.19;;;16.24;86.13
50226;BME280;36113;50.742;6.432;2022-07-29T02:09:31;98572.06;;;16.34;87.07
50226;BME280;36113;50.742;6.432;2022-07-29T02:11:59;98567.44;;;16.26;87.51
50226;BME280;36113;50.742;6.432;2022-07-29T02:14:28;98538.38;;;16.07;86.82
50226;BME280;36113;50.742;6.432;2022-07-29T02:16:55;98576.81;;;16.29;86.62
50226;BME280;36113;50.742;6.432;2022-07-29T02:19:23;98579.66;;;16.26;86.18
50226;BME280;36113;50.742;6.432;2022-07-29T02:21:52;98583.97;;;16.27;86.01
50226;BME280;36113;50.742;6.432;2022-07-29T02:24:19;98577.06;;;16.37;85.22
50226;BME280;36113;50.742;6.432;2022-07-29T02:26:47;98567.22;;;16.41;84.72
50226;BME280;36113;50.742;6.432;2022-07-29T02:29:15;98556.50;;;16.33;85.03
50226;BME280;36113;50.742;6.432;2022-07-29T02:31:42;98552.09;;;16.22;85.69
50226;BME280;36113;50.742;6.432;2022-07-29T02:34:10;98564.69;;;16.28;85.90
50226;BME280;36113;50.742;6.432;2022-07-29T02:36:36;98574.22;;;16.29;85.92
50226;BME280;36113;50.742;6.432;2022-07-29T02:39:03;98566.69;;;16.24;85.06
50226;BME280;36113;50.742;6.432;2022-07-29T02:41:35;98591.00;;;16.26;85.44
50226;BME280;36113;50.742;6.432;2022-07-29T02:44:06;98577.75;;;16.17;85.53
50226;BME280;36113;50.742;6.432;2022-07-29T02:46:34;98536.34;;;15.99;85.57
50226;BME280;36113;50.742;6.432;2022-07-29T02:51:55;98551.72;;;16.15;84.29
50226;BME280;36113;50.742;6.432;2022-07-29T02:54:27;98582.88;;;16.29;84.43
50226;BME280;36113;50.742;6.432;2022-07-29T02:57:01;98575.28;;;16.26;84.50
50226;BME280;36113;50.742;6.432;2022-07-29T02:59:30;98576.72;;;16.30;84.28
50226;BME280;36113;50.742;6.432;2022-07-29T03:01:58;98581.13;;;16.30;84.51
50226;BME280;36113;50.742;6.432;2022-07-29T03:04:26;98554.34;;;16.15;84.70
50226;BME280;36113;50.742;6.432;2022-07-29T03:06:53;98583.72;;;16.19;85.58
50226;BME280;36113;50.742;6.432;2022-07-29T03:09:20;98569.31;;;16.13;85.30
50226;BME280;36113;50.742;6.432;2022-07-29T03:11:47;98546.09;;;15.97;85.64
50226;BME280;36113;50.742;6.432;2022-07-29T03:14:13;98538.13;;;15.87;85.90
50226;BME280;36113;50.742;6.432;2022-07-29T03:16:39;98549.28;;;15.89;86.40
50226;BME280;36113;50.742;6.432;2022-07-29T03:19:04;98574.63;;;16.00;87.05
50226;BME280;36113;50.742;6.432;2022-07-29T03:21:31;98580.34;;;16.05;86.81
50226;BME280;36113;50.742;6.432;2022-07-29T03:23:56;98576.75;;;15.95;86.79
50226;BME280;36113;50.742;6.432;2022-07-29T03:26:21;98560.78;;;15.75;87.41
50226;BME280;36113;50.742;6.432;2022-07-29T03:28:47;98587.19;;;15.84;87.81
50226;BME280;36113;50.742;6.432;2022-07-29T03:31:12;98582.59;;;15.74;88.15
50226;BME280;36113;50.742;6.432;2022-07-29T03:33:37;98545.25;;;15.61;88.00
50226;BME280;36113;50.742;6.432;2022-07-29T03:36:03;98550.00;;;15.67;87.63
50226;BME280;36113;50.742;6.432;2022-07-29T03:38:30;98550.25;;;15.64;87.97
50226;BME280;36113;50.742;6.432;2022-07-29T03:41:00;98583.38;;;15.77;88.19
50226;BME280;36113;50.742;6.432;2022-07-29T03:43:30;98579.16;;;15.74;87.78
50226;BME280;36113;50.742;6.432;2022-07-29T03:45:59;98551.03;;;15.53;88.23
50226;BME280;36113;50.742;6.432;2022-07-29T03:48:26;98584.59;;;15.71;88.49
50226;BME280;36113;50.742;6.432;2022-07-29T03:50:51;98583.66;;;15.72;88.77
50226;BME280;36113;50.742;6.432;2022-07-29T03:53:17;98574.00;;;15.61;88.95
50226;BME280;36113;50.742;6.432;2022-07-29T03:55:46;98511.47;;;15.23;89.09
50226;BME280;36113;50.742;6.432;2022-07-29T03:58:14;98588.72;;;15.62;89.30
50226;BME280;36113;50.742;6.432;2022-07-29T04:00:40;98586.59;;;15.67;89.45
50226;BME280;36113;50.742;6.432;2022-07-29T04:03:07;98595.63;;;15.63;89.51
50226;BME280;36113;50.742;6.432;2022-07-29T04:05:33;98603.81;;;15.59;89.93
50226;BME280;36113;50.742;6.432;2022-07-29T04:07:58;98593.13;;;15.37;90.88
50226;BME280;36113;50.742;6.432;2022-07-29T04:10:24;98591.69;;;15.33;91.63
50226;BME280;36113;50.742;6.432;2022-07-29T04:12:49;98602.19;;;15.45;91.06
50226;BME280;36113;50.742;6.432;2022-07-29T04:15:15;98535.03;;;15.10;91.05
50226;BME280;36113;50.742;6.432;2022-07-29T04:17:40;98597.97;;;15.31;91.66
50226;BME280;36113;50.742;6.432;2022-07-29T04:20:06;98584.97;;;15.18;91.86
50226;BME280;36113;50.742;6.432;2022-07-29T04:22:32;98583.59;;;15.12;92.30
50226;BME280;36113;50.742;6.432;2022-07-29T04:24:57;98610.31;;;15.29;92.71
50226;BME280;36113;50.742;6.432;2022-07-29T04:27:22;98578.47;;;15.11;92.47
50226;BME280;36113;50.742;6.432;2022-07-29T04:29:47;98572.84;;;15.17;92.09
50226;BME280;36113;50.742;6.432;2022-07-29T04:32:13;98618.28;;;15.38;92.49
50226;BME280;36113;50.742;6.432;2022-07-29T04:34:39;98608.81;;;15.37;92.69
50226;BME280;36113;50.742;6.432;2022-07-29T04:37:04;98588.06;;;15.23;92.78
50226;BME280;36113;50.742;6.432;2022-07-29T04:39:29;98621.56;;;15.42;92.81
50226;BME280;36113;50.742;6.432;2022-07-29T04:41:55;98587.13;;;15.24;92.79
50226;BME280;36113;50.742;6.432;2022-07-29T04:44:21;98624.28;;;15.41;93.28
50226;BME280;36113;50.742;6.432;2022-07-29T04:46:46;98633.66;;;15.43;92.91
50226;BME280;36113;50.742;6.432;2022-07-29T04:49:12;98630.94;;;15.45;92.91
50226;BME280;36113;50.742;6.432;2022-07-29T04:51:38;98630.44;;;15.40;93.41
50226;BME280;36113;50.742;6.432;2022-07-29T04:54:03;98602.78;;;15.24;93.71
50226;BME280;36113;50.742;6.432;2022-07-29T04:56:29;98630.81;;;15.46;93.21
50226;BME280;36113;50.742;6.432;2022-07-29T04:58:54;98639.66;;;15.56;92.75
50226;BME280;36113;50.742;6.432;2022-07-29T05:01:19;98647.63;;;15.55;93.04
50226;BME280;36113;50.742;6.432;2022-07-29T05:03:45;98650.81;;;15.47;93.71
50226;BME280;36113;50.742;6.432;2022-07-29T05:06:10;98658.75;;;15.46;93.83
50226;BME280;36113;50.742;6.432;2022-07-29T05:08:36;98656.34;;;15.43;94.28
50226;BME280;36113;50.742;6.432;2022-07-29T05:11:02;98667.50;;;15.45;95.19
50226;BME280;36113;50.742;6.432;2022-07-29T05:13:28;98660.50;;;15.45;96.42
50226;BME280;36113;50.742;6.432;2022-07-29T05:15:53;98660.84;;;15.41;98.98
50226;BME280;36113;50.742;6.432;2022-07-29T05:18:19;98620.06;;;15.14;100.00
50226;BME280;36113;50.742;6.432;2022-07-29T05:20:44;98619.13;;;15.02;100.00
50226;BME280;36113;50.742;6.432;2022-07-29T05:23:10;98643.34;;;15.04;100.00
50226;BME280;36113;50.742;6.432;2022-07-29T05:25:38;98654.56;;;15.06;100.00
50226;BME280;36113;50.742;6.432;2022-07-29T05:28:03;98675.09;;;15.11;100.00
50226;BME280;36113;50.742;6.432;2022-07-29T05:30:28;98669.88;;;15.11;100.00
50226;BME280;36113;50.742;6.432;2022-07-29T05:32:54;98658.94;;;15.06;100.00
50226;BME280;36113;50.742;6.432;2022-07-29T05:35:19;98660.81;;;15.04;100.00
50226;BME280;36113;50.742;6.432;2022-07-29T05:37:44;98670.63;;;15.13;100.00
50226;BME280;36113;50.742;6.432;2022-07-29T05:40:10;98672.06;;;15.17;100.00
50226;BME280;36113;50.742;6.432;2022-07-29T05:42:35;98667.47;;;15.21;100.00
50226;BME280;36113;50.742;6.432;2022-07-29T05:45:01;98633.47;;;14.96;100.00
50226;BME280;36113;50.742;6.432;2022-07-29T05:47:27;98631.59;;;14.86;100.00
50226;BME280;36113;50.742;6.432;2022-07-29T05:49:52;98659.88;;;15.05;100.00
50226;BME280;36113;50.742;6.432;2022-07-29T05:52:18;98661.13;;;15.12;100.00
50226;BME280;36113;50.742;6.432;2022-07-29T05:54:43;98650.78;;;15.10;100.00
50226;BME280;36113;50.742;6.432;2022-07-29T05:57:16;98670.28;;;15.17;100.00
50226;BME280;36113;50.742;6.432;2022-07-29T05:59:41;98655.59;;;15.16;100.00
50226;BME280;36113;50.742;6.432;2022-07-29T06:02:07;98655.59;;;15.16;100.00
50226;BME280;36113;50.742;6.432;2022-07-29T06:04:33;98654.53;;;15.19;100.00
50226;BME280;36113;50.742;6.432;2022-07-29T06:06:58;98658.31;;;15.15;100.00
50226;BME280;36113;50.742;6.432;2022-07-29T06:09:24;98657.13;;;15.19;100.00
50226;BME280;36113;50.742;6.432;2022-07-29T06:11:49;98615.50;;;15.05;100.00
50226;BME280;36113;50.742;6.432;2022-07-29T06:14:14;98649.69;;;15.26;100.00
50226;BME280;36113;50.742;6.432;2022-07-29T06:16:40;98649.81;;;15.24;100.00
50226;BME280;36113;50.742;6.432;2022-07-29T06:19:06;98626.34;;;15.11;100.00
50226;BME280;36113;50.742;6.432;2022-07-29T06:21:31;98624.84;;;15.20;100.00
50226;BME280;36113;50.742;6.432;2022-07-29T06:23:56;98622.13;;;15.22;100.00
50226;BME280;36113;50.742;6.432;2022-07-29T06:26:22;98646.78;;;15.30;100.00
50226;BME280;36113;50.742;6.432;2022-07-29T06:28:48;98618.41;;;15.13;100.00
50226;BME280;36113;50.742;6.432;2022-07-29T06:31:13;98607.66;;;15.05;100.00
50226;BME280;36113;50.742;6.432;2022-07-29T06:33:39;98674.53;;;15.31;100.00
50226;BME280;36113;50.742;6.432;2022-07-29T06:36:05;98656.91;;;15.22;100.00
50226;BME280;36113;50.742;6.432;2022-07-29T06:38:30;98579.84;;;14.67;100.00
50226;BME280;36113;50.742;6.432;2022-07-29T06:40:56;98652.47;;;14.98;100.00
50226;BME280;36113;50.742;6.432;2022-07-29T06:43:33;98669.72;;;15.01;100.00
50226;BME280;36113;50.742;6.432;2022-07-29T06:46:04;98652.78;;;15.07;100.00
50226;BME280;36113;50.742;6.432;2022-07-29T06:48:30;98676.25;;;15.19;100.00
50226;BME280;36113;50.742;6.432;2022-07-29T06:50:56;98685.28;;;15.40;100.00
50226;BME280;36113;50.742;6.432;2022-07-29T06:53:22;98700.00;;;15.53;100.00
50226;BME280;36113;50.742;6.432;2022-07-29T06:55:47;98676.03;;;15.35;100.00
50226;BME280;36113;50.742;6.432;2022-07-29T06:58:12;98663.16;;;15.32;100.00
50226;BME280;36113;50.742;6.432;2022-07-29T07:00:44;98703.41;;;15.67;100.00
50226;BME280;36113;50.742;6.432;2022-07-29T07:03:10;98665.84;;;15.44;100.00
50226;BME280;36113;50.742;6.432;2022-07-29T07:05:35;98699.56;;;15.60;100.00
50226;BME280;36113;50.742;6.432;2022-07-29T07:08:01;98655.94;;;15.36;100.00
50226;BME280;36113;50.742;6.432;2022-07-29T07:10:26;98694.13;;;15.63;100.00
50226;BME280;36113;50.742;6.432;2022-07-29T07:12:52;98678.38;;;15.51;100.00
50226;BME280;36113;50.742;6.432;2022-07-29T07:15:17;98702.34;;;15.69;100.00
50226;BME280;36113;50.742;6.432;2022-07-29T07:17:47;98697.13;;;15.82;100.00
50226;BME280;36113;50.742;6.432;2022-07-29T07:20:13;98671.22;;;15.66;100.00
50226;BME280;36113;50.742;6.432;2022-07-29T07:22:39;98703.13;;;15.96;100.00
50226;BME280;36113;50.742;6.432;2022-07-29T07:25:04;98706.75;;;16.06;100.00
50226;BME280;36113;50.742;6.432;2022-07-29T07:27:30;98702.16;;;16.21;100.00
50226;BME280;36113;50.742;6.432;2022-07-29T07:29:55;98705.16;;;16.27;100.00
50226;BME280;36113;50.742;6.432;2022-07-29T07:32:20;98668.81;;;16.11;100.00
50226;BME280;36113;50.742;6.432;2022-07-29T07:34:46;98657.47;;;16.00;100.00
50226;BME280;36113;50.742;6.432;2022-07-29T07:37:11;98658.91;;;16.04;100.00
50226;BME280;36113;50.742;6.432;2022-07-29T07:39:36;98708.72;;;16.26;100.00
50226;BME280;36113;50.742;6.432;2022-07-29T07:42:02;98695.97;;;16.22;100.00
50226;BME280;36113;50.742;6.432;2022-07-29T07:44:27;98652.53;;;16.08;100.00
50226;BME280;36113;50.742;6.432;2022-07-29T07:46:53;98690.44;;;16.38;100.00
50226;BME280;36113;50.742;6.432;2022-07-29T07:49:18;98689.50;;;16.50;100.00
50226;BME280;36113;50.742;6.432;2022-07-29T07:51:43;98695.75;;;16.72;100.00
50226;BME280;36113;50.742;6.432;2022-07-29T07:54:09;98684.44;;;16.82;100.00
50226;BME280;36113;50.742;6.432;2022-07-29T07:56:34;98698.31;;;16.96;99.99
50226;BME280;36113;50.742;6.432;2022-07-29T07:58:59;98699.97;;;17.19;100.00
50226;BME280;36113;50.742;6.432;2022-07-29T08:01:25;98691.47;;;17.61;99.57
50226;BME280;36113;50.742;6.432;2022-07-29T08:03:50;98701.97;;;18.05;94.13
50226;BME280;36113;50.742;6.432;2022-07-29T08:06:15;98697.94;;;18.33;93.09
50226;BME280;36113;50.742;6.432;2022-07-29T08:08:41;98669.75;;;18.35;91.01
50226;BME280;36113;50.742;6.432;2022-07-29T08:11:06;98701.88;;;18.69;89.09
50226;BME280;36113;50.742;6.432;2022-07-29T08:13:32;98707.78;;;19.04;89.42
50226;BME280;36113;50.742;6.432;2022-07-29T08:15:58;98707.00;;;19.23;86.53
50226;BME280;36113;50.742;6.432;2022-07-29T08:18:30;98699.06;;;19.44;86.83
50226;BME280;36113;50.742;6.432;2022-07-29T08:20:56;98716.25;;;19.58;86.21
50226;BME280;36113;50.742;6.432;2022-07-29T08:23:21;98677.31;;;19.82;86.43
50226;BME280;36113;50.742;6.432;2022-07-29T08:25:48;98703.63;;;20.41;84.91
50226;BME280;36113;50.742;6.432;2022-07-29T08:28:14;98676.03;;;20.35;83.52
50226;BME280;36113;50.742;6.432;2022-07-29T08:30:39;98677.97;;;20.43;81.66
50226;BME280;36113;50.742;6.432;2022-07-29T08:33:05;98712.75;;;20.66;80.81
50226;BME280;36113;50.742;6.432;2022-07-29T08:35:30;98682.38;;;20.52;78.83
50226;BME280;36113;50.742;6.432;2022-07-29T08:37:56;98709.53;;;20.82;76.10
50226;BME280;36113;50.742;6.432;2022-07-29T08:40:21;98651.34;;;20.36;73.35
50226;BME280;36113;50.742;6.432;2022-07-29T08:42:48;98707.13;;;20.98;74.69
50226;BME280;36113;50.742;6.432;2022-07-29T08:45:14;98702.59;;;21.19;70.05
50226;BME280;36113;50.742;6.432;2022-07-29T08:47:40;98700.53;;;21.50;72.36
50226;BME280;36113;50.742;6.432;2022-07-29T08:50:07;98678.66;;;21.85;71.65
50226;BME280;36113;50.742;6.432;2022-07-29T08:52:36;98698.72;;;22.32;67.13
50226;BME280;36113;50.742;6.432;2022-07-29T08:55:01;98675.25;;;21.75;66.44
50226;BME280;36113;50.742;6.432;2022-07-29T08:57:27;98704.97;;;21.77;66.51
50226;BME280;36113;50.742;6.432;2022-07-29T08:59:54;98710.13;;;21.51;67.58
50226;BME280;36113;50.742;6.432;2022-07-29T09:02:21;98688.06;;;21.42;66.74
50226;BME280;36113;50.742;6.432;2022-07-29T09:04:47;98699.44;;;21.43;68.21
50226;BME280;36113;50.742;6.432;2022-07-29T09:07:17;98698.84;;;21.21;68.20
50226;BME280;36113;50.742;6.432;2022-07-29T09:09:43;98712.16;;;21.20;68.10
50226;BME280;36113;50.742;6.432;2022-07-29T09:12:10;98693.75;;;21.47;67.22
50226;BME280;36113;50.742;6.432;2022-07-29T09:14:37;98674.72;;;21.71;65.40
50226;BME280;36113;50.742;6.432;2022-07-29T09:17:02;98711.66;;;21.44;63.05
50226;BME280;36113;50.742;6.432;2022-07-29T09:19:31;98704.03;;;21.41;66.66
50226;BME280;36113;50.742;6.432;2022-07-29T09:21:58;98695.97;;;21.42;61.19
50226;BME280;36113;50.742;6.432;2022-07-29T09:27:00;98681.63;;;20.89;63.06
50226;BME280;36113;50.742;6.432;2022-07-29T09:29:26;98695.78;;;21.26;61.85
50226;BME280;36113;50.742;6.432;2022-07-29T09:31:53;98706.09;;;21.09;58.95
50226;BME280;36113;50.742;6.432;2022-07-29T09:34:24;98702.84;;;20.97;59.80
50226;BME280;36113;50.742;6.432;2022-07-29T09:36:51;98709.69;;;20.81;62.00
50226;BME280;36113;50.742;6.432;2022-07-29T09:41:54;98695.97;;;21.42;59.98
50226;BME280;36113;50.742;6.432;2022-07-29T09:44:21;98712.47;;;21.16;60.66
50226;BME280;36113;50.742;6.432;2022-07-29T09:47:03;98701.19;;;21.24;62.58
50226;BME280;36113;50.742;6.432;2022-07-29T09:49:32;98710.56;;;21.36;61.86
50226;BME280;36113;50.742;6.432;2022-07-29T09:52:06;98710.81;;;21.53;59.51
50226;BME280;36113;50.742;6.432;2022-07-29T09:54:32;98658.50;;;21.11;58.24
50226;BME280;36113;50.742;6.432;2022-07-29T09:57:03;98702.66;;;21.36;59.54
50226;BME280;36113;50.742;6.432;2022-07-29T09:59:28;98691.72;;;21.59;59.00
50226;BME280;36113;50.742;6.432;2022-07-29T10:01:54;98714.69;;;21.77;58.04
50226;BME280;36113;50.742;6.432;2022-07-29T10:04:20;98705.88;;;21.68;56.95
50226;BME280;36113;50.742;6.432;2022-07-29T10:06:59;98708.25;;;21.61;57.82
50226;BME280;36113;50.742;6.432;2022-07-29T10:09:26;98694.75;;;21.64;58.01
50226;BME280;36113;50.742;6.432;2022-07-29T10:12:10;98714.84;;;21.93;58.29
50226;BME280;36113;50.742;6.432;2022-07-29T10:14:37;98722.31;;;22.16;55.74
50226;BME280;36113;50.742;6.432;2022-07-29T10:17:03;98727.16;;;22.02;56.68
50226;BME280;36113;50.742;6.432;2022-07-29T10:19:30;98702.75;;;21.17;60.40
50226;BME280;36113;50.742;6.432;2022-07-29T10:21:57;98674.25;;;21.03;64.07
50226;BME280;36113;50.742;6.432;2022-07-29T10:24:25;98688.94;;;21.33;62.51
50226;BME280;36113;50.742;6.432;2022-07-29T10:26:52;98712.88;;;21.77;61.67
50226;BME280;36113;50.742;6.432;2022-07-29T10:29:18;98702.66;;;21.64;62.96
50226;BME280;36113;50.742;6.432;2022-07-29T10:31:59;98709.56;;;21.93;62.93
50226;BME280;36113;50.742;6.432;2022-07-29T10:37:33;98708.78;;;21.65;61.21
50226;BME280;36113;50.742;6.432;2022-07-29T10:43:18;98715.22;;;21.98;62.17
50226;BME280;36113;50.742;6.432;2022-07-29T10:45:47;98682.41;;;21.65;61.34
50226;BME280;36113;50.742;6.432;2022-07-29T10:48:13;98715.25;;;22.16;60.05
50226;BME280;36113;50.742;6.432;2022-07-29T10:50:53;98704.75;;;21.88;60.40
50226;BME280;36113;50.742;6.432;2022-07-29T10:53:19;98713.50;;;22.25;60.70
50226;BME280;36113;50.742;6.432;2022-07-29T10:55:45;98718.56;;;22.18;58.08
50226;BME280;36113;50.742;6.432;2022-07-29T10:58:21;98717.91;;;21.70;58.52
50226;BME280;36113;50.742;6.432;2022-07-29T11:00:52;98724.16;;;21.69;59.52
50226;BME280;36113;50.742;6.432;2022-07-29T11:06:07;98725.44;;;22.47;58.80
50226;BME280;36113;50.742;6.432;2022-07-29T11:08:33;98704.16;;;22.13;60.08
50226;BME280;36113;50.742;6.432;2022-07-29T11:13:51;98702.13;;;21.33;64.15
50226;BME280;36113;50.742;6.432;2022-07-29T11:16:18;98718.06;;;21.41;64.77
50226;BME280;36113;50.742;6.432;2022-07-29T11:19:18;98725.44;;;22.11;64.56
50226;BME280;36113;50.742;6.432;2022-07-29T11:21:44;98700.13;;;22.62;63.60
50226;BME280;36113;50.742;6.432;2022-07-29T11:26:41;98729.81;;;23.09;60.50
50226;BME280;36113;50.742;6.432;2022-07-29T11:29:20;98725.97;;;23.03;61.34
50226;BME280;36113;50.742;6.432;2022-07-29T11:31:51;98734.75;;;23.30;60.77
50226;BME280;36113;50.742;6.432;2022-07-29T11:39:31;98733.19;;;23.62;59.59
50226;BME280;36113;50.742;6.432;2022-07-29T11:44:57;98716.25;;;23.89;59.00
50226;BME280;36113;50.742;6.432;2022-07-29T11:47:23;98735.16;;;24.02;58.67
50226;BME280;36113;50.742;6.432;2022-07-29T11:49:49;98738.13;;;23.91;57.29
50226;BME280;36113;50.742;6.432;2022-07-29T11:52:16;98732.97;;;23.81;57.40
50226;BME280;36113;50.742;6.432;2022-07-29T11:54:42;98745.28;;;23.21;58.14
50226;BME280;36113;50.742;6.432;2022-07-29T11:57:08;98715.88;;;23.25;59.02
50226;BME280;36113;50.742;6.432;2022-07-29T11:59:40;98707.44;;;23.72;56.90
50226;BME280;36113;50.742;6.432;2022-07-29T12:02:09;98714.66;;;23.62;56.12
50226;BME280;36113;50.742;6.432;2022-07-29T12:04:55;98728.28;;;23.32;59.64
50226;BME280;36113;50.742;6.432;2022-07-29T12:07:32;98730.09;;;23.66;58.14
50226;BME280;36113;50.742;6.432;2022-07-29T12:09:57;98730.91;;;23.67;57.62
50226;BME280;36113;50.742;6.432;2022-07-29T12:12:23;98722.09;;;23.15;58.09
50226;BME280;36113;50.742;6.432;2022-07-29T12:14:49;98713.03;;;22.92;59.62
50226;BME280;36113;50.742;6.432;2022-07-29T12:17:28;98720.31;;;23.24;57.10
50226;BME280;36113;50.742;6.432;2022-07-29T12:19:54;98726.50;;;23.41;57.63
50226;BME280;36113;50.742;6.432;2022-07-29T12:22:31;98716.84;;;23.66;57.03
50226;BME280;36113;50.742;6.432;2022-07-29T12:25:08;98717.09;;;23.81;56.62
50226;BME280;36113;50.742;6.432;2022-07-29T12:27:34;98724.78;;;23.66;56.51
50226;BME280;36113;50.742;6.432;2022-07-29T12:30:03;98686.94;;;23.23;56.65
50226;BME280;36113;50.742;6.432;2022-07-29T12:32:37;98713.88;;;23.77;56.89
50226;BME280;36113;50.742;6.432;2022-07-29T12:35:04;98727.06;;;24.20;55.86
50226;BME280;36113;50.742;6.432;2022-07-29T12:37:32;98721.47;;;24.40;52.79
50226;BME280;36113;50.742;6.432;2022-07-29T12:39:58;98731.03;;;24.16;52.40
50226;BME280;36113;50.742;6.432;2022-07-29T12:42:23;98681.53;;;23.41;54.61
50226;BME280;36113;50.742;6.432;2022-07-29T12:44:50;98699.38;;;23.39;54.81
50226;BME280;36113;50.742;6.432;2022-07-29T12:47:15;98720.81;;;23.62;56.01
50226;BME280;36113;50.742;6.432;2022-07-29T12:49:41;98709.84;;;24.08;54.48
50226;BME280;36113;50.742;6.432;2022-07-29T12:52:27;98710.53;;;24.67;52.32
50226;BME280;36113;50.742;6.432;2022-07-29T12:54:53;98714.25;;;24.98;51.36
50226;BME280;36113;50.742;6.432;2022-07-29T12:57:19;98679.25;;;25.11;50.87
50226;BME280;36113;50.742;6.432;2022-07-29T12:59:44;98684.53;;;25.19;50.18
50226;BME280;36113;50.742;6.432;2022-07-29T13:02:22;98679.66;;;24.91;50.55
50226;BME280;36113;50.742;6.432;2022-07-29T13:04:58;98709.25;;;25.27;50.94
50226;BME280;36113;50.742;6.432;2022-07-29T13:07:26;98709.56;;;25.33;49.35
50226;BME280;36113;50.742;6.432;2022-07-29T13:09:52;98676.25;;;25.14;47.23
50226;BME280;36113;50.742;6.432;2022-07-29T13:12:18;98710.16;;;24.79;48.71
50226;BME280;36113;50.742;6.432;2022-07-29T13:14:45;98686.75;;;23.67;50.89
50226;BME280;36113;50.742;6.432;2022-07-29T13:17:15;98713.03;;;23.69;51.79
50226;BME280;36113;50.742;6.432;2022-07-29T13:19:49;98689.72;;;23.21;51.59
50226;BME280;36113;50.742;6.432;2022-07-29T13:22:20;98720.16;;;22.99;53.13
50226;BME280;36113;50.742;6.432;2022-07-29T13:24:46;98699.84;;;23.00;52.02
50226;BME280;36113;50.742;6.432;2022-07-29T13:27:14;98685.56;;;23.19;51.61
50226;BME280;36113;50.742;6.432;2022-07-29T13:29:39;98712.56;;;23.73;51.31
50226;BME280;36113;50.742;6.432;2022-07-29T13:32:05;98710.84;;;24.15;51.13
50226;BME280;36113;50.742;6.432;2022-07-29T13:34:30;98714.66;;;24.29;50.85
50226;BME280;36113;50.742;6.432;2022-07-29T13:36:56;98691.22;;;23.75;52.20